createdAt,value
2018-01-19T00:00:10.610Z,7.12
2018-01-19T00:02:39.915Z,7.72
2018-01-19T00:05:09.997Z,5.03
2018-01-19T00:07:40.964Z,3.72
2018-01-19T00:10:10.814Z,7.25
2018-01-19T00:12:40.681Z,5.40
2018-01-19T00:15:10.693Z,4.97
2018-01-19T00:17:41.507Z,7.97
2018-01-19T00:20:11.338Z,9.48
2018-01-19T00:22:45.471Z,14.48
2018-01-19T00:25:14.996Z,12.20
2018-01-19T00:27:44.806Z,19.92
2018-01-19T00:30:15.919Z,4.45
2018-01-19T00:32:46.498Z,11.12
2018-01-19T00:35:16.283Z,10.82
2018-01-19T00:37:45.748Z,18.17
2018-01-19T00:40:15.767Z,8.15
2018-01-19T00:42:45.402Z,4.90
2018-01-19T00:45:15.149Z,5.68
2018-01-19T00:47:45.440Z,5.20
2018-01-19T00:50:14.995Z,3.67
2018-01-19T00:52:47.594Z,3.80
2018-01-19T00:55:17.620Z,6.37
2018-01-19T00:57:47.181Z,3.37
2018-01-19T01:00:17.366Z,1.80
2018-01-19T01:02:47.072Z,2.03
2018-01-19T01:05:16.912Z,2.37
2018-01-19T01:07:47.493Z,2.00
2018-01-19T01:10:17.323Z,4.40
2018-01-19T01:12:47.117Z,2.58
2018-01-19T01:15:18.322Z,2.15
2018-01-19T01:17:48.078Z,2.60
2018-01-19T01:20:17.692Z,3.78
2018-01-19T01:22:48.086Z,3.15
2018-01-19T01:25:17.696Z,5.20
2018-01-19T01:27:47.369Z,7.30
2018-01-19T01:30:18.628Z,3.55
2018-01-19T01:32:48.300Z,4.30
2018-01-19T01:35:18.548Z,2.67
2018-01-19T01:37:48.246Z,2.10
2018-01-19T01:40:18.716Z,4.93
2018-01-19T01:42:49.402Z,8.85
2018-01-19T01:45:19.156Z,5.45
2018-01-19T01:47:48.940Z,6.97
2018-01-19T01:50:18.839Z,4.12
2018-01-19T01:52:48.470Z,8.57
2018-01-19T01:55:18.297Z,7.07
2018-01-19T01:57:48.175Z,3.50
2018-01-19T02:00:19.344Z,3.72
2018-01-19T02:02:48.911Z,2.72
2018-01-19T02:05:19.000Z,3.33
2018-01-19T02:07:49.827Z,6.95
2018-01-19T02:10:19.425Z,7.70
2018-01-19T02:12:49.670Z,6.62
2018-01-19T02:15:19.716Z,4.55
2018-01-19T02:17:49.987Z,2.62
2018-01-19T02:20:20.160Z,5.00
2018-01-19T02:22:49.603Z,8.00
2018-01-19T02:25:19.774Z,4.68
2018-01-19T02:27:49.462Z,4.15
2018-01-19T02:30:19.050Z,4.70
2018-01-19T02:32:49.463Z,4.70
2018-01-19T02:35:19.505Z,4.07
2018-01-19T02:37:50.190Z,4.15
2018-01-19T02:40:20.042Z,7.18
2018-01-19T02:42:50.629Z,8.85
2018-01-19T02:45:20.547Z,6.57
2018-01-19T02:47:50.645Z,4.53
2018-01-19T02:50:20.844Z,6.45
2018-01-19T02:52:50.618Z,4.15
2018-01-19T02:55:20.101Z,7.37
2018-01-19T02:57:50.050Z,9.23
2018-01-19T03:00:20.574Z,10.73
2018-01-19T03:02:50.428Z,12.85
2018-01-19T03:05:19.685Z,10.18
2018-01-19T03:07:49.249Z,6.80
2018-01-19T03:10:18.778Z,6.65
2018-01-19T03:12:48.496Z,14.35
2018-01-19T03:15:18.186Z,10.35
2018-01-19T03:17:47.757Z,14.77
2018-01-19T03:20:17.196Z,25.90
2018-01-19T03:22:46.715Z,27.35
2018-01-19T03:25:16.666Z,16.85
2018-01-19T03:27:46.535Z,14.70
2018-01-19T03:30:16.053Z,7.75
2018-01-19T03:32:45.807Z,3.90
2018-01-19T03:35:15.450Z,9.00
2018-01-19T03:37:46.014Z,4.70
2018-01-19T03:40:16.680Z,5.95
2018-01-19T03:42:46.156Z,5.45
2018-01-19T03:45:15.606Z,4.18
2018-01-19T03:47:45.267Z,6.28
2018-01-19T03:50:16.009Z,6.22
2018-01-19T03:52:45.309Z,6.85
2018-01-19T03:55:15.206Z,4.97
2018-01-19T03:57:45.193Z,6.57
2018-01-19T04:00:15.533Z,4.65
2018-01-19T04:02:45.477Z,6.03
2018-01-19T04:05:15.050Z,5.43
2018-01-19T04:07:44.543Z,4.47
2018-01-19T04:10:14.409Z,5.40
2018-01-19T04:12:44.267Z,6.28
2018-01-19T04:15:13.861Z,5.68
2018-01-19T04:17:43.498Z,6.22
2018-01-19T04:20:14.360Z,5.30
2018-01-19T04:22:44.072Z,3.83
2018-01-19T04:25:13.301Z,3.67
2018-01-19T04:27:42.773Z,4.10
2018-01-19T04:30:12.498Z,3.78
2018-01-19T04:32:42.124Z,4.82
2018-01-19T04:35:11.639Z,5.85
2018-01-19T04:37:40.997Z,5.55
2018-01-19T04:40:10.114Z,4.87
2018-01-19T04:42:39.079Z,4.95
2018-01-19T04:45:10.228Z,3.70
2018-01-19T04:47:39.612Z,7.05
2018-01-19T04:50:09.949Z,5.05
2018-01-19T04:52:39.692Z,4.32
2018-01-19T04:55:09.915Z,4.80
2018-01-19T04:57:40.721Z,3.85
2018-01-19T05:00:09.863Z,3.72
2018-01-19T05:02:39.183Z,4.35
2018-01-19T05:05:08.164Z,7.90
2018-01-19T05:07:37.783Z,5.53
2018-01-19T05:10:08.312Z,8.20
2018-01-19T05:12:37.700Z,7.40
2018-01-19T05:15:07.461Z,17.83
2018-01-19T05:17:36.903Z,18.55
2018-01-19T05:20:05.870Z,13.15
2018-01-19T05:22:34.945Z,10.18
2018-01-19T05:25:04.628Z,10.18
2018-01-19T05:27:34.108Z,8.18
2018-01-19T05:30:03.392Z,7.55
2018-01-19T05:32:33.206Z,8.65
2018-01-19T05:35:02.697Z,5.18
2018-01-19T05:37:32.170Z,5.40
2018-01-19T05:40:01.961Z,6.53
2018-01-19T05:42:31.237Z,12.18
2018-01-19T05:45:00.305Z,21.58
2018-01-19T05:47:31.482Z,19.90
2018-01-19T05:50:01.332Z,13.68
2018-01-19T05:52:32.017Z,16.40
2018-01-19T05:55:01.625Z,23.42
2018-01-19T05:57:31.609Z,10.85
2018-01-19T06:00:02.041Z,9.52
2018-01-19T06:02:32.113Z,7.12
2018-01-19T06:05:01.593Z,8.38
2018-01-19T06:07:31.336Z,9.95
2018-01-19T06:10:00.805Z,9.52
2018-01-19T06:12:29.862Z,6.65
2018-01-19T06:14:59.174Z,5.93
2018-01-19T06:17:28.697Z,6.12
2018-01-19T06:19:58.105Z,6.53
2018-01-19T06:22:28.084Z,7.40
2018-01-19T06:24:57.250Z,7.53
2018-01-19T06:27:26.941Z,7.60
2018-01-19T06:29:57.775Z,6.78
2018-01-19T06:32:27.144Z,6.60
2018-01-19T06:34:56.518Z,5.03
2018-01-19T06:37:27.565Z,11.82
2018-01-19T06:39:57.100Z,5.28
2018-01-19T06:42:27.752Z,6.50
2018-01-19T06:44:57.344Z,4.87
2018-01-19T06:47:27.169Z,5.53
2018-01-19T06:49:57.217Z,6.72
2018-01-19T06:52:26.508Z,10.05
2018-01-19T06:54:56.114Z,6.68
2018-01-19T06:57:26.147Z,5.93
2018-01-19T06:59:56.454Z,9.27
2018-01-19T07:02:27.255Z,8.43
2018-01-19T07:04:56.900Z,7.18
2018-01-19T07:07:26.787Z,8.60
2018-01-19T07:09:56.488Z,10.45
2018-01-19T07:12:26.101Z,5.78
2018-01-19T07:14:55.522Z,8.15
2018-01-19T07:17:24.828Z,7.78
2018-01-19T07:19:54.597Z,5.65
2018-01-19T07:22:24.454Z,11.95
2018-01-19T07:24:54.216Z,4.65
2018-01-19T07:27:23.963Z,9.02
2018-01-19T07:29:53.921Z,3.97
2018-01-19T07:32:23.731Z,8.98
2018-01-19T07:34:54.071Z,10.07
2018-01-19T07:37:23.595Z,8.10
2018-01-19T07:39:53.096Z,13.82
2018-01-19T07:42:23.038Z,16.30
2018-01-19T07:44:52.546Z,7.55
2018-01-19T07:47:21.935Z,17.00
2018-01-19T07:49:51.433Z,14.55
2018-01-19T07:52:21.387Z,17.10
2018-01-19T07:54:51.310Z,14.60
2018-01-19T07:57:21.390Z,16.92
2018-01-19T07:59:50.734Z,11.27
2018-01-19T08:02:21.358Z,11.88
2018-01-19T08:04:51.221Z,9.32
2018-01-19T08:07:20.802Z,8.23
2018-01-19T08:09:50.849Z,9.23
2018-01-19T08:12:20.146Z,7.00
2018-01-19T08:14:49.444Z,10.57
2018-01-19T08:17:19.709Z,9.57
2018-01-19T08:19:50.277Z,7.18
2018-01-19T08:22:20.142Z,10.82
2018-01-19T08:24:49.935Z,15.68
2018-01-19T08:27:19.625Z,12.98
2018-01-19T08:29:49.345Z,16.98
2018-01-19T08:32:19.050Z,13.43
2018-01-19T08:34:48.961Z,11.60
2018-01-19T08:37:18.890Z,16.50
2018-01-19T08:39:49.021Z,12.48
2018-01-19T08:42:18.750Z,12.00
2018-01-19T08:44:48.439Z,9.90
2018-01-19T08:47:17.929Z,9.70
2018-01-19T08:49:47.415Z,9.23
2018-01-19T08:52:17.353Z,8.07
2018-01-19T08:54:47.368Z,10.82
2018-01-19T08:57:16.588Z,10.77
2018-01-19T08:59:46.258Z,9.98
2018-01-19T09:02:15.965Z,9.70
2018-01-19T09:04:45.450Z,7.43
2018-01-19T09:07:14.951Z,7.95
2018-01-19T09:09:44.889Z,17.67
2018-01-19T09:12:14.346Z,6.97
2018-01-19T09:14:44.997Z,6.93
2018-01-19T09:17:14.593Z,4.25
2018-01-19T09:19:44.656Z,5.35
2018-01-19T09:22:14.401Z,3.37
2018-01-19T09:24:44.262Z,4.87
2018-01-19T09:27:14.752Z,4.40
2018-01-19T09:29:45.551Z,5.47
2018-01-19T09:32:15.256Z,6.00
2018-01-19T09:34:45.139Z,6.60
2018-01-19T09:37:14.410Z,3.40
2018-01-19T09:39:43.568Z,7.87
2018-01-19T09:42:13.829Z,3.62
2018-01-19T09:44:44.150Z,4.20
2018-01-19T09:47:14.475Z,6.55
2018-01-19T09:49:43.926Z,4.65
2018-01-19T09:52:13.743Z,7.22
2018-01-19T09:54:43.611Z,6.18
2018-01-19T09:57:13.003Z,4.25
2018-01-19T09:59:42.617Z,5.10
2018-01-19T10:02:12.446Z,4.60
2018-01-19T10:04:41.800Z,9.30
2018-01-19T10:07:11.487Z,5.20
2018-01-19T10:09:40.823Z,3.58
2018-01-19T10:12:11.851Z,5.60
2018-01-19T10:14:41.427Z,5.10
2018-01-19T10:17:11.144Z,4.03
2018-01-19T10:19:40.441Z,5.30
2018-01-19T10:22:10.142Z,4.72
2018-01-19T10:24:39.823Z,3.15
2018-01-19T10:27:09.135Z,2.60
2018-01-19T10:29:38.846Z,2.53
2018-01-19T10:32:09.765Z,2.70
2018-01-19T10:34:39.818Z,3.55
2018-01-19T10:37:09.235Z,2.20
2018-01-19T10:39:38.794Z,2.47
2018-01-19T10:42:08.640Z,1.65
2018-01-19T10:44:38.118Z,3.22
2018-01-19T10:47:08.136Z,3.70
2018-01-19T10:49:38.455Z,1.40
2018-01-19T10:52:08.369Z,2.25
2018-01-19T10:54:37.881Z,1.58
2018-01-19T10:57:07.168Z,2.03
2018-01-19T10:59:36.162Z,1.85
2018-01-19T11:02:05.924Z,3.35
2018-01-19T11:04:35.523Z,1.12
2018-01-19T11:07:05.560Z,1.50
2018-01-19T11:09:34.749Z,1.20
2018-01-19T11:12:04.826Z,1.60
2018-01-19T11:14:34.150Z,1.50
2018-01-19T11:17:04.094Z,1.75
2018-01-19T11:19:34.722Z,1.70
2018-01-19T11:22:04.902Z,1.30
2018-01-19T11:24:35.329Z,1.25
2018-01-19T11:27:04.582Z,1.17
2018-01-19T11:29:34.379Z,2.28
2018-01-19T11:32:04.979Z,1.23
2018-01-19T11:34:35.484Z,1.52
2018-01-19T11:37:05.020Z,1.25
2018-01-19T11:39:34.816Z,3.28
2018-01-19T11:42:04.127Z,1.80
2018-01-19T11:44:33.711Z,1.85
2018-01-19T11:47:03.199Z,1.50
2018-01-19T11:49:32.758Z,1.73
2018-01-19T11:52:03.162Z,1.40
2018-01-19T11:54:32.521Z,2.35
2018-01-19T11:57:02.541Z,1.27
2018-01-19T11:59:31.908Z,2.03
2018-01-19T12:02:02.363Z,2.53
2018-01-19T12:04:31.635Z,2.03
2018-01-19T12:07:00.777Z,2.28
2018-01-19T12:09:30.600Z,1.65
2018-01-19T12:12:00.302Z,2.25
2018-01-19T12:14:30.054Z,1.90
2018-01-19T12:17:00.154Z,1.33
2018-01-19T12:19:30.442Z,1.83
2018-01-19T12:22:00.129Z,3.00
2018-01-19T12:24:29.722Z,2.53
2018-01-19T12:26:59.156Z,2.80
2018-01-19T12:29:28.674Z,2.50
2018-01-19T12:31:58.401Z,1.77
2018-01-19T12:34:27.914Z,1.85
2018-01-19T12:36:57.623Z,2.20
2018-01-19T12:39:28.356Z,1.55
2018-01-19T12:41:58.649Z,3.45
2018-01-19T12:44:28.976Z,3.58
2018-01-19T12:46:59.101Z,1.30
2018-01-19T12:49:29.299Z,1.58
2018-01-19T12:51:59.489Z,1.35
2018-01-19T12:54:28.859Z,1.60
2018-01-19T12:56:59.332Z,1.67
2018-01-19T12:59:29.218Z,3.65
2018-01-19T13:01:59.168Z,1.67
2018-01-19T13:04:28.470Z,2.12
2018-01-19T13:06:57.821Z,5.80
2018-01-19T13:09:27.939Z,4.12
2018-01-19T13:11:58.427Z,2.00
2018-01-19T13:14:27.774Z,1.48
2018-01-19T13:16:58.768Z,2.47
2018-01-19T13:19:28.320Z,5.15
2018-01-19T13:21:59.052Z,5.50
2018-01-19T13:24:28.537Z,3.47
2018-01-19T13:26:59.066Z,3.97
2018-01-19T13:29:28.750Z,4.72
2018-01-19T13:31:58.618Z,3.00
2018-01-19T13:34:27.917Z,1.85
2018-01-19T13:36:57.854Z,3.92
2018-01-19T13:39:27.802Z,3.92
2018-01-19T13:41:57.711Z,3.33
2018-01-19T13:44:27.894Z,2.65
2018-01-19T13:46:57.524Z,4.65
2018-01-19T13:49:27.441Z,4.28
2018-01-19T13:51:57.146Z,4.55
2018-01-19T13:54:26.500Z,6.32
2018-01-19T13:56:57.398Z,5.45
2018-01-19T13:59:26.829Z,3.83
2018-01-19T14:01:57.204Z,4.32
2018-01-19T14:04:26.507Z,2.67
2018-01-19T14:06:56.452Z,3.92
2018-01-19T14:09:26.452Z,2.25
2018-01-19T14:11:56.012Z,2.90
2018-01-19T14:14:25.162Z,1.62
2018-01-19T14:16:55.603Z,1.30
2018-01-19T14:19:25.180Z,3.08
2018-01-19T14:21:54.501Z,2.80
2018-01-19T14:24:24.251Z,7.72
2018-01-19T14:26:53.955Z,5.68
2018-01-19T14:29:23.673Z,7.43
2018-01-19T14:31:53.754Z,6.55
2018-01-19T14:34:23.267Z,5.18
2018-01-19T14:36:53.545Z,5.47
2018-01-19T14:39:23.298Z,4.35
2018-01-19T14:41:54.925Z,5.40
2018-01-19T14:44:25.919Z,4.70
2018-01-19T14:46:57.295Z,4.18
2018-01-19T14:49:26.997Z,3.08
2018-01-19T14:51:56.539Z,3.28
2018-01-19T14:54:26.059Z,3.95
2018-01-19T14:56:55.271Z,1.90
2018-01-19T14:59:25.179Z,2.80
2018-01-19T15:01:54.680Z,2.67
2018-01-19T15:04:24.733Z,4.50
2018-01-19T15:06:54.281Z,4.37
2018-01-19T15:09:24.967Z,5.45
2018-01-19T15:11:55.328Z,2.92
2018-01-19T15:14:24.825Z,5.60
2018-01-19T15:16:54.156Z,5.43
2018-01-19T15:19:23.558Z,6.25
2018-01-19T15:21:52.844Z,4.25
2018-01-19T15:24:22.368Z,4.47
2018-01-19T15:26:52.360Z,3.95
2018-01-19T15:29:22.750Z,5.28
2018-01-19T15:31:52.375Z,2.80
2018-01-19T15:34:22.128Z,2.60
2018-01-19T15:36:53.222Z,4.37
2018-01-19T15:39:22.925Z,4.07
2018-01-19T15:41:53.187Z,6.93
2018-01-19T15:44:23.773Z,3.83
2018-01-19T15:46:54.050Z,3.42
2018-01-19T15:49:24.648Z,2.92
2018-01-19T15:51:54.206Z,2.65
2018-01-19T15:54:23.615Z,2.08
2018-01-19T15:56:53.151Z,5.70
2018-01-19T15:59:22.841Z,3.97
2018-01-19T16:01:52.819Z,3.87
2018-01-19T16:04:23.524Z,4.68
2018-01-19T16:06:53.572Z,2.80
2018-01-19T16:09:23.336Z,2.20
2018-01-19T16:11:53.264Z,2.10
2018-01-19T16:14:22.949Z,1.98
2018-01-19T16:16:52.686Z,3.95
2018-01-19T16:19:22.677Z,3.67
2018-01-19T16:21:52.267Z,4.28
2018-01-19T16:24:23.400Z,7.80
2018-01-19T16:26:53.621Z,9.18
2018-01-19T16:29:23.013Z,6.47
2018-01-19T16:31:52.684Z,6.80
2018-01-19T16:34:22.459Z,5.60
2018-01-19T16:36:52.953Z,6.32
2018-01-19T16:39:22.790Z,4.00
2018-01-19T16:41:52.970Z,2.78
2018-01-19T16:44:23.618Z,2.55
2018-01-19T16:46:53.253Z,5.35
2018-01-19T16:49:22.498Z,4.32
2018-01-19T16:51:52.939Z,3.20
2018-01-19T16:54:22.498Z,3.28
2018-01-19T16:56:52.399Z,2.05
2018-01-19T16:59:22.440Z,4.20
2018-01-19T17:01:52.592Z,2.75
2018-01-19T17:04:22.303Z,2.40
2018-01-19T17:06:51.652Z,5.90
2018-01-19T17:09:21.546Z,1.65
2018-01-19T17:11:51.376Z,2.97
2018-01-19T17:14:20.900Z,1.85
2018-01-19T17:16:51.885Z,3.50
2018-01-19T17:19:21.929Z,1.73
2018-01-19T17:21:51.265Z,3.65
2018-01-19T17:24:21.330Z,2.58
2018-01-19T17:26:50.916Z,1.90
2018-01-19T17:29:21.083Z,1.92
2018-01-19T17:31:52.208Z,3.85
2018-01-19T17:34:21.855Z,2.30
2018-01-19T17:36:51.989Z,2.15
2018-01-19T17:39:22.704Z,3.85
2018-01-19T17:41:52.264Z,3.08
2018-01-19T17:44:21.577Z,2.85
2018-01-19T17:46:51.237Z,6.00
2018-01-19T17:49:22.092Z,2.33
2018-01-19T17:51:51.659Z,2.30
2018-01-19T17:54:20.922Z,5.45
2018-01-19T17:56:50.494Z,3.20
2018-01-19T17:59:20.093Z,2.17
2018-01-19T18:01:50.366Z,4.05
2018-01-19T18:04:21.222Z,3.55
2018-01-19T18:06:50.528Z,7.60
2018-01-19T18:09:19.944Z,6.55
2018-01-19T18:11:50.572Z,4.30
2018-01-19T18:14:20.916Z,3.95
2018-01-19T18:16:50.566Z,2.30
2018-01-19T18:19:20.275Z,2.40
2018-01-19T18:21:49.761Z,1.40
2018-01-19T18:24:19.086Z,2.15
2018-01-19T18:26:48.654Z,2.28
2018-01-19T18:29:18.355Z,4.30
2018-01-19T18:31:47.928Z,19.53
2018-01-19T18:34:18.244Z,3.33
2018-01-19T18:36:48.633Z,2.70
2018-01-19T18:39:18.234Z,4.00
2018-01-19T18:41:47.715Z,3.97
2018-01-19T18:44:17.889Z,1.50
2018-01-19T18:46:47.979Z,2.87
2018-01-19T18:49:17.666Z,4.65
2018-01-19T18:51:47.247Z,6.50
2018-01-19T18:54:17.465Z,4.82
2018-01-19T18:56:47.700Z,6.22
2018-01-19T18:59:17.095Z,10.90
2018-01-19T19:01:47.807Z,4.03
2018-01-19T19:04:18.075Z,2.08
2018-01-19T19:06:47.681Z,2.40
2018-01-19T19:09:17.247Z,1.60
2018-01-19T19:11:47.325Z,3.30
2018-01-19T19:14:17.040Z,4.03
2018-01-19T19:16:46.982Z,4.30
2018-01-19T19:19:16.670Z,3.23
2018-01-19T19:21:47.015Z,3.27
2018-01-19T19:24:16.725Z,2.33
2018-01-19T19:26:46.399Z,2.70
2018-01-19T19:29:17.345Z,2.00
2018-01-19T19:31:47.246Z,3.13
2018-01-19T19:34:16.954Z,2.73
2018-01-19T19:36:47.715Z,1.80
2018-01-19T19:39:17.848Z,5.33
2018-01-19T19:41:48.459Z,5.87
2018-01-19T19:44:18.579Z,6.67
2018-01-19T19:46:48.214Z,9.93
2018-01-19T19:49:18.317Z,5.87
2018-01-19T19:51:47.866Z,10.00
2018-01-19T19:54:17.172Z,8.17
2018-01-19T19:56:47.191Z,14.97
2018-01-19T19:59:17.421Z,8.03
2018-01-19T20:01:47.128Z,5.90
2018-01-19T20:04:16.700Z,2.87
2018-01-19T20:06:46.487Z,5.07
2018-01-19T20:09:17.347Z,1.40
2018-01-19T20:11:47.124Z,4.20
2018-01-19T20:14:16.819Z,2.50
2018-01-19T20:16:46.378Z,1.93
2018-01-19T20:19:16.359Z,3.20
2018-01-19T20:21:46.712Z,1.47
2018-01-19T20:24:16.836Z,2.93
2018-01-19T20:26:46.641Z,2.70
2018-01-19T20:29:16.214Z,3.33
2018-01-19T20:31:46.596Z,2.90
2018-01-19T20:34:16.249Z,3.83
2018-01-19T20:36:46.601Z,3.50
2018-01-19T20:39:16.400Z,1.90
2018-01-19T20:41:45.934Z,3.35
2018-01-19T20:44:16.545Z,3.37
2018-01-19T20:46:46.136Z,6.03
2018-01-19T20:49:16.471Z,3.07
2018-01-19T20:51:46.556Z,4.67
2018-01-19T20:54:17.134Z,5.15
2018-01-19T20:56:46.853Z,9.93
2018-01-19T20:59:16.895Z,15.57
2018-01-19T21:01:47.168Z,6.37
2018-01-19T21:04:17.178Z,6.63
2018-01-19T21:06:47.468Z,4.07
2018-01-19T21:09:17.346Z,3.20
2018-01-19T21:11:47.095Z,4.53
2018-01-19T21:14:17.148Z,5.55
2018-01-19T21:16:46.853Z,2.97
2018-01-19T21:19:16.595Z,5.97
2018-01-19T21:21:46.307Z,8.20
2018-01-19T21:24:15.973Z,6.83
2018-01-19T21:26:46.305Z,2.83
2018-01-19T21:29:16.244Z,2.30
2018-01-19T21:31:45.805Z,4.13
2018-01-19T21:34:15.570Z,3.60
2018-01-19T21:36:45.705Z,4.40
2018-01-19T21:39:15.346Z,4.63
2018-01-19T21:41:45.081Z,2.73
2018-01-19T21:44:15.044Z,4.37
2018-01-19T21:46:44.736Z,2.40
2018-01-19T21:49:14.244Z,2.67
2018-01-19T21:51:43.930Z,1.73
2018-01-19T21:54:13.695Z,4.43
2018-01-19T21:56:43.422Z,5.43
2018-01-19T21:59:12.989Z,3.77
2018-01-19T22:01:43.273Z,2.67
2018-01-19T22:04:12.845Z,4.93
2018-01-19T22:06:42.332Z,2.60
2018-01-19T22:09:11.923Z,3.03
2018-01-19T22:11:41.568Z,2.20
2018-01-19T22:14:11.044Z,1.90
2018-01-19T22:16:40.529Z,9.50
2018-01-19T22:19:10.666Z,3.00
2018-01-19T22:21:40.433Z,5.53
2018-01-19T22:24:10.377Z,2.83
2018-01-19T22:26:40.302Z,4.67
2018-01-19T22:29:10.460Z,1.85
2018-01-19T22:31:39.882Z,2.63
2018-01-19T22:34:09.671Z,5.00
2018-01-19T22:36:39.320Z,1.70
2018-01-19T22:39:09.402Z,3.00
2018-01-19T22:41:38.900Z,3.33
2018-01-19T22:44:08.404Z,3.20
2018-01-19T22:46:38.335Z,2.00
2018-01-19T22:49:08.068Z,7.50
2018-01-19T22:51:38.862Z,3.00
2018-01-19T22:54:08.526Z,2.57
2018-01-19T22:56:39.119Z,2.80
2018-01-19T22:59:08.929Z,4.90
2018-01-19T23:01:40.056Z,3.07
2018-01-19T23:04:10.065Z,3.20
2018-01-19T23:06:39.891Z,2.67
2018-01-19T23:09:09.597Z,2.10
2018-01-19T23:11:39.939Z,3.83
2018-01-19T23:14:09.900Z,2.17
2018-01-19T23:16:39.746Z,3.40
2018-01-19T23:19:09.177Z,2.73
2018-01-19T23:21:38.740Z,2.70
2018-01-19T23:24:08.470Z,2.60
2018-01-19T23:26:38.851Z,2.17
2018-01-19T23:29:09.132Z,2.12
2018-01-19T23:31:38.935Z,1.55
2018-01-19T23:34:08.542Z,3.87
2018-01-19T23:36:37.964Z,2.50
2018-01-19T23:39:11.929Z,3.67
2018-01-19T23:41:41.824Z,2.63
2018-01-19T23:44:11.668Z,3.30
2018-01-19T23:46:41.564Z,4.30
2018-01-19T23:49:11.173Z,2.95
2018-01-19T23:51:41.517Z,2.45
2018-01-19T23:54:11.467Z,4.40
2018-01-19T23:56:40.650Z,3.78
2018-01-19T23:59:10.766Z,3.75
